Terminal Aerodrome Forecast
Issued by NWS Huntsville, AL

Home | Current Version | Previous Version | Text Only | Print | Product List | Glossary On
Versions: 1 2 3 4 5 6 7 8 9 10 11 12 13 14 15 16 17 18 19 20 21 22 23 24 25 26 27 28 29 30 31 32 33
000
FTUS44 KHUN 221720
TAFMSL
TAF
KMSL 221720Z 2218/2318 12012G25KT 4SM SHRA OVC010
      TEMPO 2221/2301 2SM +SHRA BR BKN006
     FM230400 15010G17KT 4SM BR VCSH BKN009 OVC015 PROB30 2309/2313
      2SM -SHRA BR OVC005
     FM231400 20008KT 5SM BR VCSH BKN015 OVC025=

USA.gov is the U.S. government's official web portal to all federal, state and local government web resources and services.